sensor_id;sensor_type;location;lat;lon;timestamp;P1;durP1;ratioP1;P2;durP2;ratioP2
65558;SDS011;52203;51.998;5.140;2022-11-03T00:00:12;4.57;;;1.90;;
65558;SDS011;52203;51.998;5.140;2022-11-03T00:02:37;4.63;;;2.13;;
65558;SDS011;52203;51.998;5.140;2022-11-03T00:05:03;10.57;;;2.17;;
65558;SDS011;52203;51.998;5.140;2022-11-03T00:07:49;8.02;;;2.10;;
65558;SDS011;52203;51.998;5.140;2022-11-03T00:10:14;12.63;;;2.47;;
65558;SDS011;52203;51.998;5.140;2022-11-03T00:12:40;10.35;;;2.22;;
65558;SDS011;52203;51.998;5.140;2022-11-03T00:15:05;9.32;;;2.15;;
65558;SDS011;52203;51.998;5.140;2022-11-03T00:17:31;8.30;;;2.17;;
65558;SDS011;52203;51.998;5.140;2022-11-03T00:19:57;6.90;;;2.22;;
65558;SDS011;52203;51.998;5.140;2022-11-03T00:22:22;8.20;;;2.47;;
65558;SDS011;52203;51.998;5.140;2022-11-03T00:24:48;7.30;;;2.55;;
65558;SDS011;52203;51.998;5.140;2022-11-03T00:27:13;7.28;;;2.75;;
65558;SDS011;52203;51.998;5.140;2022-11-03T00:29:39;7.75;;;1.80;;
65558;SDS011;52203;51.998;5.140;2022-11-03T00:32:04;6.25;;;1.70;;
65558;SDS011;52203;51.998;5.140;2022-11-03T00:34:30;10.68;;;2.53;;
65558;SDS011;52203;51.998;5.140;2022-11-03T00:36:55;5.72;;;1.80;;
65558;SDS011;52203;51.998;5.140;2022-11-03T00:39:21;10.10;;;2.20;;
65558;SDS011;52203;51.998;5.140;2022-11-03T00:41:46;10.00;;;2.40;;
65558;SDS011;52203;51.998;5.140;2022-11-03T00:44:12;7.78;;;1.90;;
65558;SDS011;52203;51.998;5.140;2022-11-03T00:46:37;10.02;;;2.38;;
65558;SDS011;52203;51.998;5.140;2022-11-03T00:49:03;8.63;;;2.03;;
65558;SDS011;52203;51.998;5.140;2022-11-03T00:51:29;9.00;;;2.13;;
65558;SDS011;52203;51.998;5.140;2022-11-03T00:53:58;7.00;;;1.70;;
65558;SDS011;52203;51.998;5.140;2022-11-03T00:56:26;7.43;;;1.73;;
65558;SDS011;52203;51.998;5.140;2022-11-03T00:58:53;7.28;;;2.38;;
65558;SDS011;52203;51.998;5.140;2022-11-03T01:03:47;9.52;;;2.25;;
65558;SDS011;52203;51.998;5.140;2022-11-03T01:06:33;11.38;;;2.10;;
65558;SDS011;52203;51.998;5.140;2022-11-03T01:11:52;8.20;;;2.05;;
65558;SDS011;52203;51.998;5.140;2022-11-03T01:14:22;10.45;;;2.20;;
65558;SDS011;52203;51.998;5.140;2022-11-03T01:16:49;9.45;;;2.33;;
65558;SDS011;52203;51.998;5.140;2022-11-03T01:19:15;9.80;;;2.08;;
65558;SDS011;52203;51.998;5.140;2022-11-03T01:21:40;8.43;;;2.28;;
65558;SDS011;52203;51.998;5.140;2022-11-03T01:24:07;7.47;;;2.00;;
65558;SDS011;52203;51.998;5.140;2022-11-03T01:26:33;8.63;;;2.17;;
65558;SDS011;52203;51.998;5.140;2022-11-03T01:28:58;9.65;;;2.13;;
65558;SDS011;52203;51.998;5.140;2022-11-03T01:31:25;9.70;;;2.47;;
65558;SDS011;52203;51.998;5.140;2022-11-03T01:33:52;6.68;;;1.92;;
65558;SDS011;52203;51.998;5.140;2022-11-03T01:36:19;10.63;;;2.10;;
65558;SDS011;52203;51.998;5.140;2022-11-03T01:38:45;10.18;;;2.60;;
65558;SDS011;52203;51.998;5.140;2022-11-03T01:41:13;8.52;;;1.92;;
65558;SDS011;52203;51.998;5.140;2022-11-03T01:44:22;6.50;;;1.90;;
65558;SDS011;52203;51.998;5.140;2022-11-03T01:49:11;9.48;;;2.30;;
65558;SDS011;52203;51.998;5.140;2022-11-03T01:51:48;7.40;;;1.90;;
65558;SDS011;52203;51.998;5.140;2022-11-03T01:54:18;11.07;;;2.00;;
65558;SDS011;52203;51.998;5.140;2022-11-03T01:56:46;8.90;;;2.72;;
65558;SDS011;52203;51.998;5.140;2022-11-03T01:59:13;14.50;;;2.30;;
65558;SDS011;52203;51.998;5.140;2022-11-03T02:01:41;6.45;;;2.20;;
65558;SDS011;52203;51.998;5.140;2022-11-03T02:04:09;8.00;;;1.90;;
65558;SDS011;52203;51.998;5.140;2022-11-03T02:06:38;9.18;;;1.85;;
65558;SDS011;52203;51.998;5.140;2022-11-03T02:09:07;12.77;;;2.08;;
65558;SDS011;52203;51.998;5.140;2022-11-03T02:11:35;10.98;;;2.53;;
65558;SDS011;52203;51.998;5.140;2022-11-03T02:14:20;4.30;;;1.50;;
65558;SDS011;52203;51.998;5.140;2022-11-03T02:16:52;9.50;;;2.35;;
65558;SDS011;52203;51.998;5.140;2022-11-03T02:27:10;10.32;;;2.00;;
65558;SDS011;52203;51.998;5.140;2022-11-03T02:29:35;7.90;;;2.42;;
65558;SDS011;52203;51.998;5.140;2022-11-03T02:32:06;8.45;;;1.75;;
65558;SDS011;52203;51.998;5.140;2022-11-03T02:34:38;9.23;;;2.80;;
65558;SDS011;52203;51.998;5.140;2022-11-03T02:37:22;7.55;;;2.13;;
65558;SDS011;52203;51.998;5.140;2022-11-03T02:39:57;11.32;;;3.20;;
65558;SDS011;52203;51.998;5.140;2022-11-03T02:42:28;11.60;;;2.08;;
65558;SDS011;52203;51.998;5.140;2022-11-03T02:44:56;9.90;;;2.25;;
65558;SDS011;52203;51.998;5.140;2022-11-03T02:47:26;12.02;;;2.50;;
65558;SDS011;52203;51.998;5.140;2022-11-03T02:49:54;10.15;;;1.98;;
65558;SDS011;52203;51.998;5.140;2022-11-03T02:52:36;5.80;;;1.65;;
65558;SDS011;52203;51.998;5.140;2022-11-03T02:55:11;10.63;;;2.78;;
65558;SDS011;52203;51.998;5.140;2022-11-03T03:01:02;11.25;;;2.92;;
65558;SDS011;52203;51.998;5.140;2022-11-03T03:03:53;8.23;;;3.03;;
65558;SDS011;52203;51.998;5.140;2022-11-03T03:06:29;8.45;;;1.55;;
65558;SDS011;52203;51.998;5.140;2022-11-03T03:09:02;5.05;;;1.80;;
65558;SDS011;52203;51.998;5.140;2022-11-03T03:11:31;9.27;;;2.08;;
65558;SDS011;52203;51.998;5.140;2022-11-03T03:14:11;8.07;;;2.00;;
65558;SDS011;52203;51.998;5.140;2022-11-03T03:17:02;7.30;;;1.80;;
65558;SDS011;52203;51.998;5.140;2022-11-03T03:19:48;12.55;;;2.17;;
65558;SDS011;52203;51.998;5.140;2022-11-03T03:22:24;6.78;;;2.05;;
65558;SDS011;52203;51.998;5.140;2022-11-03T03:24:59;6.60;;;1.75;;
65558;SDS011;52203;51.998;5.140;2022-11-03T03:27:29;9.63;;;2.17;;
65558;SDS011;52203;51.998;5.140;2022-11-03T03:30:00;8.63;;;2.08;;
65558;SDS011;52203;51.998;5.140;2022-11-03T03:32:29;5.60;;;2.05;;
65558;SDS011;52203;51.998;5.140;2022-11-03T03:34:57;11.68;;;2.30;;
65558;SDS011;52203;51.998;5.140;2022-11-03T03:37:24;8.73;;;2.10;;
65558;SDS011;52203;51.998;5.140;2022-11-03T03:39:51;5.03;;;1.80;;
65558;SDS011;52203;51.998;5.140;2022-11-03T03:42:20;7.43;;;1.80;;
65558;SDS011;52203;51.998;5.140;2022-11-03T03:44:51;7.30;;;2.55;;
65558;SDS011;52203;51.998;5.140;2022-11-03T03:47:27;6.57;;;1.80;;
65558;SDS011;52203;51.998;5.140;2022-11-03T03:49:54;6.95;;;2.30;;
65558;SDS011;52203;51.998;5.140;2022-11-03T03:52:20;10.13;;;1.85;;
65558;SDS011;52203;51.998;5.140;2022-11-03T03:54:46;5.07;;;1.80;;
65558;SDS011;52203;51.998;5.140;2022-11-03T03:57:15;10.48;;;2.20;;
65558;SDS011;52203;51.998;5.140;2022-11-03T03:59:43;6.88;;;2.30;;
65558;SDS011;52203;51.998;5.140;2022-11-03T04:02:10;8.70;;;1.83;;
65558;SDS011;52203;51.998;5.140;2022-11-03T04:04:36;5.93;;;1.70;;
65558;SDS011;52203;51.998;5.140;2022-11-03T04:07:02;12.73;;;2.30;;
65558;SDS011;52203;51.998;5.140;2022-11-03T04:12:11;6.22;;;2.05;;
65558;SDS011;52203;51.998;5.140;2022-11-03T04:14:55;6.97;;;1.67;;
65558;SDS011;52203;51.998;5.140;2022-11-03T04:20:47;8.50;;;2.13;;
65558;SDS011;52203;51.998;5.140;2022-11-03T04:23:31;5.53;;;1.90;;
65558;SDS011;52203;51.998;5.140;2022-11-03T04:25:57;10.95;;;2.45;;
65558;SDS011;52203;51.998;5.140;2022-11-03T04:28:23;10.25;;;2.22;;
65558;SDS011;52203;51.998;5.140;2022-11-03T04:30:51;6.55;;;1.85;;
65558;SDS011;52203;51.998;5.140;2022-11-03T04:33:20;9.07;;;1.80;;
65558;SDS011;52203;51.998;5.140;2022-11-03T04:35:46;6.20;;;1.70;;
65558;SDS011;52203;51.998;5.140;2022-11-03T04:40:38;8.57;;;1.95;;
65558;SDS011;52203;51.998;5.140;2022-11-03T04:43:11;9.77;;;3.13;;
65558;SDS011;52203;51.998;5.140;2022-11-03T04:45:38;8.85;;;2.10;;
65558;SDS011;52203;51.998;5.140;2022-11-03T04:48:14;4.90;;;2.10;;
65558;SDS011;52203;51.998;5.140;2022-11-03T04:50:45;4.22;;;1.83;;
65558;SDS011;52203;51.998;5.140;2022-11-03T04:53:13;4.85;;;1.80;;
65558;SDS011;52203;51.998;5.140;2022-11-03T04:55:40;7.40;;;2.03;;
65558;SDS011;52203;51.998;5.140;2022-11-03T05:00:51;10.45;;;2.08;;
65558;SDS011;52203;51.998;5.140;2022-11-03T05:03:22;10.70;;;3.00;;
65558;SDS011;52203;51.998;5.140;2022-11-03T05:05:49;7.53;;;2.05;;
65558;SDS011;52203;51.998;5.140;2022-11-03T05:08:19;9.27;;;2.00;;
65558;SDS011;52203;51.998;5.140;2022-11-03T05:10:45;6.80;;;1.85;;
65558;SDS011;52203;51.998;5.140;2022-11-03T05:13:20;5.43;;;2.10;;
65558;SDS011;52203;51.998;5.140;2022-11-03T05:15:49;5.65;;;1.92;;
65558;SDS011;52203;51.998;5.140;2022-11-03T05:18:24;5.28;;;2.00;;
65558;SDS011;52203;51.998;5.140;2022-11-03T05:20:56;10.13;;;2.22;;
65558;SDS011;52203;51.998;5.140;2022-11-03T05:23:24;8.93;;;2.47;;
65558;SDS011;52203;51.998;5.140;2022-11-03T05:25:52;8.75;;;2.35;;
65558;SDS011;52203;51.998;5.140;2022-11-03T05:28:21;8.15;;;1.95;;
65558;SDS011;52203;51.998;5.140;2022-11-03T05:30:52;7.28;;;2.10;;
65558;SDS011;52203;51.998;5.140;2022-11-03T05:33:31;8.57;;;2.55;;
65558;SDS011;52203;51.998;5.140;2022-11-03T05:36:01;8.00;;;2.20;;
65558;SDS011;52203;51.998;5.140;2022-11-03T05:38:32;8.45;;;1.85;;
65558;SDS011;52203;51.998;5.140;2022-11-03T05:40:58;8.75;;;2.40;;
65558;SDS011;52203;51.998;5.140;2022-11-03T05:43:24;8.02;;;1.90;;
65558;SDS011;52203;51.998;5.140;2022-11-03T05:45:51;11.20;;;2.03;;
65558;SDS011;52203;51.998;5.140;2022-11-03T05:50:58;7.45;;;1.98;;
65558;SDS011;52203;51.998;5.140;2022-11-03T05:53:30;6.28;;;2.17;;
65558;SDS011;52203;51.998;5.140;2022-11-03T05:56:02;4.88;;;1.75;;
65558;SDS011;52203;51.998;5.140;2022-11-03T05:58:39;4.95;;;1.70;;
65558;SDS011;52203;51.998;5.140;2022-11-03T06:01:15;8.07;;;2.42;;
65558;SDS011;52203;51.998;5.140;2022-11-03T06:03:47;5.60;;;1.83;;
65558;SDS011;52203;51.998;5.140;2022-11-03T06:06:29;8.85;;;2.17;;
65558;SDS011;52203;51.998;5.140;2022-11-03T06:09:01;6.25;;;1.88;;
65558;SDS011;52203;51.998;5.140;2022-11-03T06:11:30;6.75;;;2.17;;
65558;SDS011;52203;51.998;5.140;2022-11-03T06:13:59;9.32;;;1.98;;
65558;SDS011;52203;51.998;5.140;2022-11-03T06:21:45;5.43;;;2.05;;
65558;SDS011;52203;51.998;5.140;2022-11-03T06:24:15;7.50;;;2.33;;
65558;SDS011;52203;51.998;5.140;2022-11-03T06:26:42;8.32;;;2.10;;
65558;SDS011;52203;51.998;5.140;2022-11-03T06:29:14;7.35;;;2.10;;
65558;SDS011;52203;51.998;5.140;2022-11-03T06:31:41;7.03;;;1.90;;
65558;SDS011;52203;51.998;5.140;2022-11-03T06:34:16;8.55;;;1.65;;
65558;SDS011;52203;51.998;5.140;2022-11-03T06:36:58;4.82;;;1.92;;
65558;SDS011;52203;51.998;5.140;2022-11-03T06:39:33;6.78;;;1.95;;
65558;SDS011;52203;51.998;5.140;2022-11-03T06:42:01;5.50;;;1.80;;
65558;SDS011;52203;51.998;5.140;2022-11-03T06:44:45;6.97;;;2.38;;
65558;SDS011;52203;51.998;5.140;2022-11-03T06:47:20;4.47;;;1.98;;
65558;SDS011;52203;51.998;5.140;2022-11-03T06:49:47;10.15;;;2.53;;
65558;SDS011;52203;51.998;5.140;2022-11-03T06:57:32;6.50;;;1.95;;
65558;SDS011;52203;51.998;5.140;2022-11-03T07:00:05;7.28;;;2.55;;
65558;SDS011;52203;51.998;5.140;2022-11-03T07:05:25;11.13;;;2.78;;
65558;SDS011;52203;51.998;5.140;2022-11-03T07:07:56;10.45;;;2.38;;
65558;SDS011;52203;51.998;5.140;2022-11-03T07:10:25;6.95;;;1.95;;
65558;SDS011;52203;51.998;5.140;2022-11-03T07:12:52;7.75;;;2.10;;
65558;SDS011;52203;51.998;5.140;2022-11-03T07:15:30;8.23;;;2.33;;
65558;SDS011;52203;51.998;5.140;2022-11-03T07:17:58;10.65;;;2.60;;
65558;SDS011;52203;51.998;5.140;2022-11-03T07:20:25;5.93;;;1.80;;
65558;SDS011;52203;51.998;5.140;2022-11-03T07:22:51;10.07;;;2.20;;
65558;SDS011;52203;51.998;5.140;2022-11-03T07:25:18;11.65;;;2.35;;
65558;SDS011;52203;51.998;5.140;2022-11-03T07:27:46;8.43;;;2.33;;
65558;SDS011;52203;51.998;5.140;2022-11-03T07:30:23;4.22;;;2.00;;
65558;SDS011;52203;51.998;5.140;2022-11-03T07:32:55;8.32;;;2.03;;
65558;SDS011;52203;51.998;5.140;2022-11-03T07:35:41;4.57;;;1.92;;
65558;SDS011;52203;51.998;5.140;2022-11-03T07:38:15;7.88;;;2.45;;
65558;SDS011;52203;51.998;5.140;2022-11-03T07:40:43;8.63;;;2.53;;
65558;SDS011;52203;51.998;5.140;2022-11-03T07:43:21;12.45;;;2.80;;
65558;SDS011;52203;51.998;5.140;2022-11-03T07:45:49;5.95;;;2.28;;
65558;SDS011;52203;51.998;5.140;2022-11-03T07:51:05;11.20;;;2.30;;
65558;SDS011;52203;51.998;5.140;2022-11-03T07:53:52;7.78;;;2.67;;
65558;SDS011;52203;51.998;5.140;2022-11-03T07:56:21;10.15;;;2.55;;
65558;SDS011;52203;51.998;5.140;2022-11-03T07:58:56;5.97;;;2.38;;
65558;SDS011;52203;51.998;5.140;2022-11-03T08:04:05;9.98;;;2.05;;
65558;SDS011;52203;51.998;5.140;2022-11-03T08:06:32;9.30;;;2.75;;
65558;SDS011;52203;51.998;5.140;2022-11-03T08:08:58;8.65;;;2.92;;
65558;SDS011;52203;51.998;5.140;2022-11-03T08:11:24;5.72;;;2.03;;
65558;SDS011;52203;51.998;5.140;2022-11-03T08:13:50;10.70;;;2.35;;
65558;SDS011;52203;51.998;5.140;2022-11-03T08:16:16;11.10;;;2.30;;
65558;SDS011;52203;51.998;5.140;2022-11-03T08:18:42;9.60;;;2.40;;
65558;SDS011;52203;51.998;5.140;2022-11-03T08:21:08;14.45;;;2.88;;
65558;SDS011;52203;51.998;5.140;2022-11-03T08:23:34;11.35;;;2.40;;
65558;SDS011;52203;51.998;5.140;2022-11-03T08:26:00;9.70;;;2.38;;
65558;SDS011;52203;51.998;5.140;2022-11-03T08:28:26;8.80;;;2.70;;
65558;SDS011;52203;51.998;5.140;2022-11-03T08:30:51;9.77;;;2.47;;
65558;SDS011;52203;51.998;5.140;2022-11-03T08:33:17;7.95;;;2.47;;
65558;SDS011;52203;51.998;5.140;2022-11-03T08:35:43;12.25;;;3.05;;
65558;SDS011;52203;51.998;5.140;2022-11-03T08:38:08;8.95;;;2.55;;
65558;SDS011;52203;51.998;5.140;2022-11-03T08:40:34;9.25;;;2.50;;
65558;SDS011;52203;51.998;5.140;2022-11-03T08:42:59;9.80;;;2.35;;
65558;SDS011;52203;51.998;5.140;2022-11-03T08:45:29;8.50;;;2.10;;
65558;SDS011;52203;51.998;5.140;2022-11-03T08:47:55;10.30;;;2.90;;
65558;SDS011;52203;51.998;5.140;2022-11-03T08:50:21;6.18;;;2.10;;
65558;SDS011;52203;51.998;5.140;2022-11-03T08:52:47;13.38;;;2.83;;
65558;SDS011;52203;51.998;5.140;2022-11-03T08:55:13;7.55;;;2.47;;
65558;SDS011;52203;51.998;5.140;2022-11-03T08:57:39;7.18;;;2.20;;
65558;SDS011;52203;51.998;5.140;2022-11-03T09:00:05;8.63;;;2.53;;
65558;SDS011;52203;51.998;5.140;2022-11-03T09:02:32;12.23;;;2.53;;
65558;SDS011;52203;51.998;5.140;2022-11-03T09:04:57;9.00;;;2.53;;
65558;SDS011;52203;51.998;5.140;2022-11-03T09:07:23;12.88;;;2.50;;
65558;SDS011;52203;51.998;5.140;2022-11-03T09:09:49;8.55;;;2.00;;
65558;SDS011;52203;51.998;5.140;2022-11-03T09:12:14;8.68;;;2.92;;
65558;SDS011;52203;51.998;5.140;2022-11-03T09:14:40;10.30;;;2.50;;
65558;SDS011;52203;51.998;5.140;2022-11-03T09:17:06;7.07;;;2.22;;
65558;SDS011;52203;51.998;5.140;2022-11-03T09:19:31;10.65;;;1.92;;
65558;SDS011;52203;51.998;5.140;2022-11-03T09:21:57;7.53;;;2.10;;
65558;SDS011;52203;51.998;5.140;2022-11-03T09:24:24;9.63;;;2.05;;
65558;SDS011;52203;51.998;5.140;2022-11-03T09:26:50;11.35;;;2.67;;
65558;SDS011;52203;51.998;5.140;2022-11-03T09:29:16;7.00;;;2.33;;
65558;SDS011;52203;51.998;5.140;2022-11-03T09:31:42;13.30;;;2.58;;
65558;SDS011;52203;51.998;5.140;2022-11-03T09:34:08;6.90;;;2.58;;
65558;SDS011;52203;51.998;5.140;2022-11-03T09:36:33;5.32;;;2.30;;
65558;SDS011;52203;51.998;5.140;2022-11-03T09:38:59;8.82;;;2.28;;
65558;SDS011;52203;51.998;5.140;2022-11-03T09:41:24;5.38;;;2.30;;
65558;SDS011;52203;51.998;5.140;2022-11-03T09:43:50;5.82;;;2.33;;
65558;SDS011;52203;51.998;5.140;2022-11-03T09:46:16;7.82;;;2.15;;
65558;SDS011;52203;51.998;5.140;2022-11-03T09:48:42;9.65;;;2.55;;
65558;SDS011;52203;51.998;5.140;2022-11-03T09:51:09;7.82;;;2.10;;
65558;SDS011;52203;51.998;5.140;2022-11-03T09:53:38;7.20;;;1.88;;
65558;SDS011;52203;51.998;5.140;2022-11-03T09:56:04;9.10;;;2.33;;
65558;SDS011;52203;51.998;5.140;2022-11-03T09:58:30;8.75;;;2.47;;
65558;SDS011;52203;51.998;5.140;2022-11-03T10:00:58;6.25;;;2.63;;
65558;SDS011;52203;51.998;5.140;2022-11-03T10:03:24;4.88;;;1.73;;
65558;SDS011;52203;51.998;5.140;2022-11-03T10:05:50;9.27;;;2.00;;
65558;SDS011;52203;51.998;5.140;2022-11-03T10:08:31;9.25;;;2.35;;
65558;SDS011;52203;51.998;5.140;2022-11-03T10:10:59;7.45;;;1.80;;
65558;SDS011;52203;51.998;5.140;2022-11-03T10:16:00;5.40;;;1.90;;
65558;SDS011;52203;51.998;5.140;2022-11-03T10:18:29;5.15;;;1.70;;
65558;SDS011;52203;51.998;5.140;2022-11-03T10:20:55;5.70;;;2.08;;
65558;SDS011;52203;51.998;5.140;2022-11-03T10:23:25;7.90;;;2.05;;
65558;SDS011;52203;51.998;5.140;2022-11-03T10:25:51;10.32;;;2.00;;
65558;SDS011;52203;51.998;5.140;2022-11-03T10:30:53;7.68;;;1.88;;
65558;SDS011;52203;51.998;5.140;2022-11-03T10:33:28;4.53;;;1.73;;
65558;SDS011;52203;51.998;5.140;2022-11-03T10:36:03;8.80;;;2.35;;
65558;SDS011;52203;51.998;5.140;2022-11-03T10:38:46;5.03;;;1.50;;
65558;SDS011;52203;51.998;5.140;2022-11-03T10:41:13;6.63;;;1.95;;
65558;SDS011;52203;51.998;5.140;2022-11-03T10:43:58;7.88;;;2.10;;
65558;SDS011;52203;51.998;5.140;2022-11-03T10:46:33;7.25;;;2.00;;
65558;SDS011;52203;51.998;5.140;2022-11-03T10:49:20;6.53;;;2.20;;
65558;SDS011;52203;51.998;5.140;2022-11-03T10:51:49;7.65;;;1.70;;
65558;SDS011;52203;51.998;5.140;2022-11-03T10:54:17;5.18;;;1.73;;
65558;SDS011;52203;51.998;5.140;2022-11-03T10:56:44;8.82;;;1.65;;
65558;SDS011;52203;51.998;5.140;2022-11-03T10:59:21;6.32;;;1.80;;
65558;SDS011;52203;51.998;5.140;2022-11-03T11:01:56;5.03;;;1.80;;
65558;SDS011;52203;51.998;5.140;2022-11-03T11:04:22;5.03;;;1.70;;
65558;SDS011;52203;51.998;5.140;2022-11-03T11:06:47;6.70;;;2.00;;
65558;SDS011;52203;51.998;5.140;2022-11-03T11:09:15;5.95;;;1.73;;
65558;SDS011;52203;51.998;5.140;2022-11-03T11:16:53;9.23;;;1.90;;
65558;SDS011;52203;51.998;5.140;2022-11-03T11:19:20;7.68;;;2.00;;
65558;SDS011;52203;51.998;5.140;2022-11-03T11:24:14;6.22;;;1.67;;
65558;SDS011;52203;51.998;5.140;2022-11-03T11:30:05;4.65;;;1.60;;
65558;SDS011;52203;51.998;5.140;2022-11-03T11:32:55;5.03;;;1.65;;
65558;SDS011;52203;51.998;5.140;2022-11-03T11:41:05;4.25;;;1.80;;
65558;SDS011;52203;51.998;5.140;2022-11-03T11:43:31;5.05;;;1.65;;
65558;SDS011;52203;51.998;5.140;2022-11-03T11:49:01;5.40;;;2.05;;
65558;SDS011;52203;51.998;5.140;2022-11-03T11:51:40;4.00;;;1.70;;
65558;SDS011;52203;51.998;5.140;2022-11-03T11:54:07;5.22;;;1.65;;
65558;SDS011;52203;51.998;5.140;2022-11-03T11:56:40;4.95;;;1.80;;
65558;SDS011;52203;51.998;5.140;2022-11-03T11:59:12;6.03;;;1.67;;
65558;SDS011;52203;51.998;5.140;2022-11-03T12:01:49;5.25;;;1.83;;
65558;SDS011;52203;51.998;5.140;2022-11-03T12:04:26;6.35;;;1.55;;
65558;SDS011;52203;51.998;5.140;2022-11-03T12:06:57;4.93;;;1.60;;
65558;SDS011;52203;51.998;5.140;2022-11-03T12:09:24;6.40;;;1.50;;
65558;SDS011;52203;51.998;5.140;2022-11-03T12:14:36;7.22;;;1.77;;
65558;SDS011;52203;51.998;5.140;2022-11-03T12:19:41;5.43;;;1.73;;
65558;SDS011;52203;51.998;5.140;2022-11-03T12:24:46;7.43;;;1.52;;
65558;SDS011;52203;51.998;5.140;2022-11-03T12:27:19;6.20;;;1.70;;
65558;SDS011;52203;51.998;5.140;2022-11-03T12:29:48;6.38;;;1.70;;
65558;SDS011;52203;51.998;5.140;2022-11-03T12:32:15;7.13;;;1.83;;
65558;SDS011;52203;51.998;5.140;2022-11-03T12:34:41;5.75;;;1.63;;
65558;SDS011;52203;51.998;5.140;2022-11-03T12:37:06;5.05;;;1.50;;
65558;SDS011;52203;51.998;5.140;2022-11-03T12:39:33;4.25;;;1.40;;
65558;SDS011;52203;51.998;5.140;2022-11-03T12:41:58;4.03;;;1.60;;
65558;SDS011;52203;51.998;5.140;2022-11-03T12:44:24;5.28;;;1.70;;
65558;SDS011;52203;51.998;5.140;2022-11-03T12:46:50;7.78;;;1.63;;
65558;SDS011;52203;51.998;5.140;2022-11-03T12:49:15;5.70;;;1.40;;
65558;SDS011;52203;51.998;5.140;2022-11-03T12:51:41;3.38;;;1.60;;
65558;SDS011;52203;51.998;5.140;2022-11-03T12:54:06;4.20;;;1.50;;
65558;SDS011;52203;51.998;5.140;2022-11-03T12:56:32;6.80;;;1.98;;
65558;SDS011;52203;51.998;5.140;2022-11-03T12:58:57;3.15;;;1.38;;
65558;SDS011;52203;51.998;5.140;2022-11-03T13:01:23;3.78;;;1.58;;
65558;SDS011;52203;51.998;5.140;2022-11-03T13:03:49;5.15;;;1.67;;
65558;SDS011;52203;51.998;5.140;2022-11-03T13:06:14;8.15;;;1.63;;
65558;SDS011;52203;51.998;5.140;2022-11-03T13:08:40;5.35;;;1.55;;
65558;SDS011;52203;51.998;5.140;2022-11-03T13:11:06;4.15;;;1.45;;
65558;SDS011;52203;51.998;5.140;2022-11-03T13:13:50;4.30;;;1.60;;
65558;SDS011;52203;51.998;5.140;2022-11-03T13:16:16;11.20;;;1.95;;
65558;SDS011;52203;51.998;5.140;2022-11-03T13:18:42;6.35;;;1.70;;
65558;SDS011;52203;51.998;5.140;2022-11-03T13:21:07;3.20;;;1.80;;
65558;SDS011;52203;51.998;5.140;2022-11-03T13:23:33;3.35;;;1.40;;
65558;SDS011;52203;51.998;5.140;2022-11-03T13:25:59;5.90;;;1.60;;
65558;SDS011;52203;51.998;5.140;2022-11-03T13:28:24;4.82;;;1.58;;
65558;SDS011;52203;51.998;5.140;2022-11-03T13:30:50;5.47;;;1.70;;
65558;SDS011;52203;51.998;5.140;2022-11-03T13:33:15;5.88;;;1.65;;
65558;SDS011;52203;51.998;5.140;2022-11-03T13:35:41;4.97;;;1.70;;
65558;SDS011;52203;51.998;5.140;2022-11-03T13:38:06;6.40;;;1.83;;
65558;SDS011;52203;51.998;5.140;2022-11-03T13:40:32;4.30;;;1.60;;
65558;SDS011;52203;51.998;5.140;2022-11-03T13:42:57;10.02;;;1.90;;
65558;SDS011;52203;51.998;5.140;2022-11-03T13:45:23;5.20;;;1.60;;
65558;SDS011;52203;51.998;5.140;2022-11-03T13:47:48;4.30;;;1.75;;
65558;SDS011;52203;51.998;5.140;2022-11-03T13:50:14;4.82;;;1.50;;
65558;SDS011;52203;51.998;5.140;2022-11-03T13:52:40;8.40;;;1.67;;
65558;SDS011;52203;51.998;5.140;2022-11-03T13:55:05;4.82;;;1.48;;
65558;SDS011;52203;51.998;5.140;2022-11-03T13:57:31;3.83;;;1.30;;
65558;SDS011;52203;51.998;5.140;2022-11-03T13:59:57;6.63;;;1.70;;
65558;SDS011;52203;51.998;5.140;2022-11-03T14:02:22;5.93;;;1.60;;
65558;SDS011;52203;51.998;5.140;2022-11-03T14:04:48;3.33;;;1.52;;
65558;SDS011;52203;51.998;5.140;2022-11-03T14:07:13;5.65;;;1.67;;
65558;SDS011;52203;51.998;5.140;2022-11-03T14:09:39;5.53;;;1.67;;
65558;SDS011;52203;51.998;5.140;2022-11-03T14:12:04;6.28;;;1.80;;
65558;SDS011;52203;51.998;5.140;2022-11-03T14:14:49;4.68;;;1.75;;
65558;SDS011;52203;51.998;5.140;2022-11-03T14:17:15;4.78;;;1.42;;
65558;SDS011;52203;51.998;5.140;2022-11-03T14:19:41;5.05;;;1.30;;
65558;SDS011;52203;51.998;5.140;2022-11-03T14:22:07;4.95;;;1.50;;
65558;SDS011;52203;51.998;5.140;2022-11-03T14:24:32;4.18;;;1.70;;
65558;SDS011;52203;51.998;5.140;2022-11-03T14:26:58;5.10;;;2.20;;
65558;SDS011;52203;51.998;5.140;2022-11-03T14:29:24;7.30;;;1.70;;
65558;SDS011;52203;51.998;5.140;2022-11-03T14:31:51;4.50;;;1.60;;
65558;SDS011;52203;51.998;5.140;2022-11-03T14:34:16;5.75;;;1.65;;
65558;SDS011;52203;51.998;5.140;2022-11-03T14:36:42;3.72;;;1.50;;
65558;SDS011;52203;51.998;5.140;2022-11-03T14:39:07;4.05;;;1.65;;
65558;SDS011;52203;51.998;5.140;2022-11-03T14:41:33;4.07;;;1.40;;
65558;SDS011;52203;51.998;5.140;2022-11-03T14:44:18;3.45;;;1.40;;
65558;SDS011;52203;51.998;5.140;2022-11-03T14:46:44;4.63;;;1.70;;
65558;SDS011;52203;51.998;5.140;2022-11-03T14:49:09;4.18;;;1.70;;
65558;SDS011;52203;51.998;5.140;2022-11-03T14:51:35;3.75;;;1.80;;
65558;SDS011;52203;51.998;5.140;2022-11-03T14:54:01;4.43;;;2.13;;
65558;SDS011;52203;51.998;5.140;2022-11-03T14:56:26;3.80;;;1.80;;
65558;SDS011;52203;51.998;5.140;2022-11-03T14:58:52;5.10;;;1.60;;
65558;SDS011;52203;51.998;5.140;2022-11-03T15:01:18;4.25;;;1.40;;
65558;SDS011;52203;51.998;5.140;2022-11-03T15:03:44;7.82;;;1.77;;
65558;SDS011;52203;51.998;5.140;2022-11-03T15:06:10;3.35;;;1.50;;
65558;SDS011;52203;51.998;5.140;2022-11-03T15:08:36;4.28;;;1.50;;
65558;SDS011;52203;51.998;5.140;2022-11-03T15:11:02;5.22;;;1.77;;
65558;SDS011;52203;51.998;5.140;2022-11-03T15:13:29;2.55;;;1.40;;
65558;SDS011;52203;51.998;5.140;2022-11-03T15:15:55;4.03;;;1.40;;
65558;SDS011;52203;51.998;5.140;2022-11-03T15:18:20;3.38;;;1.50;;
65558;SDS011;52203;51.998;5.140;2022-11-03T15:20:46;7.10;;;2.00;;
65558;SDS011;52203;51.998;5.140;2022-11-03T15:23:11;3.60;;;2.03;;
65558;SDS011;52203;51.998;5.140;2022-11-03T15:25:37;4.15;;;1.50;;
65558;SDS011;52203;51.998;5.140;2022-11-03T15:28:03;4.25;;;1.48;;
65558;SDS011;52203;51.998;5.140;2022-11-03T15:30:28;8.63;;;2.58;;
65558;SDS011;52203;51.998;5.140;2022-11-03T15:32:54;5.30;;;1.65;;
65558;SDS011;52203;51.998;5.140;2022-11-03T15:35:21;4.50;;;1.60;;
65558;SDS011;52203;51.998;5.140;2022-11-03T15:37:47;5.30;;;1.75;;
65558;SDS011;52203;51.998;5.140;2022-11-03T15:40:13;4.18;;;1.50;;
65558;SDS011;52203;51.998;5.140;2022-11-03T15:42:40;5.38;;;1.60;;
65558;SDS011;52203;51.998;5.140;2022-11-03T15:45:06;9.77;;;4.88;;
65558;SDS011;52203;51.998;5.140;2022-11-03T15:47:34;7.60;;;3.22;;
65558;SDS011;52203;51.998;5.140;2022-11-03T15:49:59;5.68;;;2.92;;
65558;SDS011;52203;51.998;5.140;2022-11-03T15:52:25;9.90;;;4.20;;
65558;SDS011;52203;51.998;5.140;2022-11-03T15:54:50;5.25;;;2.25;;
65558;SDS011;52203;51.998;5.140;2022-11-03T15:57:16;7.35;;;4.50;;
65558;SDS011;52203;51.998;5.140;2022-11-03T15:59:42;6.78;;;3.33;;
65558;SDS011;52203;51.998;5.140;2022-11-03T16:02:08;5.18;;;2.72;;
65558;SDS011;52203;51.998;5.140;2022-11-03T16:04:34;7.32;;;3.97;;
65558;SDS011;52203;51.998;5.140;2022-11-03T16:06:59;7.00;;;6.03;;
65558;SDS011;52203;51.998;5.140;2022-11-03T16:09:25;7.78;;;6.78;;
65558;SDS011;52203;51.998;5.140;2022-11-03T16:11:50;9.18;;;4.30;;
65558;SDS011;52203;51.998;5.140;2022-11-03T16:14:16;6.57;;;3.00;;
65558;SDS011;52203;51.998;5.140;2022-11-03T16:16:43;5.47;;;3.25;;
65558;SDS011;52203;51.998;5.140;2022-11-03T16:19:08;4.20;;;2.60;;